Time;durP1;ratioP1;P1;durP2;ratioP2;P2;SDS_P1;SDS_P2;PMS_P1;PMS_P2;Temp;Humidity;BMP_temperature;BMP_pressure;BME280_temperature;BME280_humidity;BME280_pressure;Samples;Min_cycle;Max_cycle;Signal;HPM_P1;HPM_P2
2022/10/20 00:01:43;;;;;;;8.90;8.30;;;;;;;-142.65;92.88;50168.78;5113732;28;20201;-68
2022/10/20 00:04:09;;;;;;;8.83;8.03;;;;;;;-142.65;92.80;50172.78;5114429;28;20193;-68
2022/10/20 00:06:36;;;;;;;7.70;7.40;;;;;;;-142.65;92.84;50182.72;5114174;28;20185;-68
2022/10/20 00:09:04;;;;;;;7.90;7.50;;;;;;;-142.65;92.82;50170.78;5113659;28;20192;-68
2022/10/20 00:11:31;;;;;;;8.57;8.00;;;;;;;-142.65;93.00;50172.78;5113564;28;20239;-68
2022/10/20 00:13:59;;;;;;;11.50;7.40;;;;;;;-142.65;93.09;50174.75;5113653;28;20200;-68
2022/10/20 00:16:27;;;;;;;7.90;7.43;;;;;;;-142.65;92.97;50178.75;5113627;28;20181;-68
2022/10/20 00:18:55;;;;;;;8.17;7.77;;;;;;;-142.65;93.17;50176.75;5113606;28;20675;-67
2022/10/20 00:21:23;;;;;;;8.90;8.20;;;;;;;-142.65;93.29;50170.78;5114292;28;20213;-68
2022/10/20 00:23:50;;;;;;;15.67;7.50;;;;;;;;;;5118059;28;20181;-68
2022/10/20 00:26:27;;;;;;;12.33;7.87;;;;;;;-142.65;93.35;50176.75;5117998;28;20196;-68
2022/10/20 00:28:54;;;;;;;8.37;7.77;;;;;;;-142.65;93.03;50178.75;5117989;28;20165;-68
2022/10/20 00:31:22;;;;;;;6.77;6.60;;;;;;;-142.65;93.39;50178.75;5118170;28;20196;-68
2022/10/20 00:33:48;;;;;;;10.80;7.87;;;;;;;-142.65;93.20;50176.75;5117588;28;20196;-68
2022/10/20 00:36:17;;;;;;;7.90;7.50;;;;;;;-142.65;92.99;50172.78;5117527;28;20224;-68
2022/10/20 00:38:44;;;;;;;7.70;7.27;;;;;;;-142.65;93.18;50174.75;5117500;28;20188;-68
2022/10/20 00:41:12;;;;;;;8.67;8.20;;;;;;;-142.65;93.39;50178.75;5117298;28;20217;-68
2022/10/20 00:43:57;;;;;;;9.33;8.87;;;;;;;-142.65;93.21;50172.78;5117377;28;20198;-68
2022/10/20 00:46:32;;;;;;;8.13;7.47;;;;;;;-142.65;93.59;50164.81;5117654;28;20166;-68
2022/10/20 00:49:11;;;;;;;8.10;7.43;;;;;;;-142.65;93.68;50178.75;5117874;28;20617;-68
2022/10/20 00:51:38;;;;;;;8.67;7.93;;;;;;;-142.65;93.72;50174.75;5117299;28;20199;-68
2022/10/20 00:54:10;;;;;;;9.80;8.07;;;;;;;-142.65;93.66;50180.75;5117779;28;20194;-68
2022/10/20 00:56:40;;;;;;;8.90;8.30;;;;;;;-142.65;93.53;50174.75;5117463;28;20195;-68
2022/10/20 00:59:08;;;;;;;8.60;8.07;;;;;;;-142.65;93.57;50172.78;5117149;28;20627;-68
2022/10/20 01:01:35;;;;;;;8.97;8.10;;;;;;;-142.65;93.62;50174.75;5116885;28;20686;-68
2022/10/20 01:04:02;;;;;;;9.77;9.13;;;;;;;-142.65;93.75;50180.75;5116997;28;20232;-68
2022/10/20 01:06:28;;;;;;;9.07;8.20;;;;;;;-142.65;93.98;50174.75;5116959;28;20188;-68
2022/10/20 01:08:55;;;;;;;12.20;7.60;;;;;;;-142.65;93.93;50172.78;5116923;28;20189;-68
2022/10/20 01:11:41;;;;;;;11.17;8.50;;;;;;;-142.65;93.96;50172.78;5116796;28;20259;-68
2022/10/20 01:14:19;;;;;;;9.57;8.03;;;;;;;-142.65;94.18;50170.78;5116374;28;20660;-68
2022/10/20 01:16:56;;;;;;;8.93;8.23;;;;;;;-142.65;94.11;50170.78;5116136;28;20173;-68
2022/10/20 01:20:00;;;;;;;9.43;8.73;;;;;;;-142.65;94.31;50178.75;5115858;28;20173;-68
2022/10/20 01:23:09;;;;;;;9.20;8.33;;;;;;;-142.65;94.31;50170.78;5115752;28;20195;-68
2022/10/20 01:25:48;;;;;;;13.63;8.87;;;;;;;-142.65;94.45;50180.75;5115749;28;20531;-68
2022/10/20 01:28:56;;;;;;;8.07;7.67;;;;;;;-142.65;94.47;50180.75;5115693;28;20528;-68
2022/10/20 01:31:36;;;;;;;8.37;7.50;;;;;;;-142.65;94.40;50182.72;5115106;28;20209;-68
2022/10/20 01:34:10;;;;;;;9.67;7.43;;;;;;;-142.65;94.25;50180.75;5114935;28;20248;-68
2022/10/20 01:37:01;;;;;;;9.27;8.37;;;;;;;-142.65;94.00;50172.78;5115259;28;20197;-68
2022/10/20 01:39:33;;;;;;;8.57;7.83;;;;;;;-142.65;94.02;50172.78;5115494;28;20184;-68
2022/10/20 01:42:07;;;;;;;8.00;7.40;;;;;;;-142.65;94.15;50174.75;5115298;28;20667;-68
2022/10/20 01:44:35;;;;;;;7.50;7.00;;;;;;;-142.65;94.03;50174.75;5115113;28;20629;-68
2022/10/20 01:47:04;;;;;;;10.37;8.57;;;;;;;-142.65;94.17;50172.78;5115366;28;20208;-68
2022/10/20 01:49:31;;;;;;;8.47;7.70;;;;;;;-142.65;94.15;50170.78;5115054;28;20666;-68
2022/10/20 01:51:57;;;;;;;8.77;8.10;;;;;;;-142.65;94.21;50170.78;5115161;28;20196;-68
2022/10/20 01:54:26;;;;;;;8.10;7.80;;;;;;;-142.65;94.23;50170.78;5115246;28;20234;-68
2022/10/20 01:57:17;;;;;;;8.50;7.90;;;;;;;-142.65;94.23;50172.78;5114881;28;20183;-68
2022/10/20 02:00:05;;;;;;;7.23;6.80;;;;;;;-142.65;94.35;50174.75;5114835;28;20173;-68
2022/10/20 02:02:47;;;;;;;8.37;7.90;;;;;;;-142.65;94.38;50178.75;5115116;28;20184;-68
2022/10/20 02:05:31;;;;;;;9.40;8.43;;;;;;;-142.65;94.41;50172.78;5115090;28;20181;-68
2022/10/20 02:08:08;;;;;;;9.53;8.27;;;;;;;-142.65;94.64;50176.75;5115044;28;20180;-68
2022/10/20 02:10:46;;;;;;;7.63;7.23;;;;;;;-142.65;94.74;50174.75;5114901;28;20208;-68
2022/10/20 02:13:15;;;;;;;8.50;7.70;;;;;;;-142.65;94.61;50180.75;5114811;28;20180;-68
2022/10/20 02:15:47;;;;;;;7.57;7.23;;;;;;;-142.65;94.60;50180.75;5115956;28;20159;-68
2022/10/20 02:18:20;;;;;;;7.60;7.27;;;;;;;-142.65;94.66;50170.78;5115640;28;20185;-68
2022/10/20 02:20:51;;;;;;;9.50;7.70;;;;;;;-142.65;94.72;50176.75;5115675;28;20215;-69
2022/10/20 02:23:17;;;;;;;7.77;7.33;;;;;;;-142.65;94.83;50174.75;5115537;28;20177;-68
2022/10/20 02:25:48;;;;;;;8.90;8.13;;;;;;;-142.65;94.85;50176.75;5115462;28;20189;-68
2022/10/20 02:28:15;;;;;;;10.13;7.03;;;;;;;-142.65;95.00;50178.75;5115417;28;20649;-68
2022/10/20 02:30:43;;;;;;;16.50;9.30;;;;;;;-142.65;94.96;50172.78;5115486;28;20571;-68
2022/10/20 02:33:11;;;;;;;8.87;8.27;;;;;;;-142.65;95.07;50174.75;5115282;28;20656;-68
2022/10/20 02:35:47;;;;;;;8.57;8.07;;;;;;;-142.65;94.91;50176.75;5115205;28;20182;-68
2022/10/20 02:38:13;;;;;;;8.37;7.33;;;;;;;;;;5115238;28;20184;-68
2022/10/20 02:40:39;;;;;;;9.80;7.77;;;;;;;-142.65;94.93;50182.72;5115266;28;20233;-68
2022/10/20 02:43:06;;;;;;;8.93;8.30;;;;;;;-142.65;94.91;50172.78;5115638;28;20196;-68
2022/10/20 02:45:32;;;;;;;10.23;7.67;;;;;;;-142.65;94.89;50180.75;5114826;28;20536;-68
2022/10/20 02:47:58;;;;;;;8.57;7.87;;;;;;;-142.65;94.93;50174.75;5115182;28;20202;-68
2022/10/20 02:50:25;;;;;;;9.73;7.83;;;;;;;;;;5115439;28;20564;-69
2022/10/20 02:52:51;;;;;;;8.43;7.83;;;;;;;-142.65;95.03;50178.75;5114897;28;20656;-68
2022/10/20 02:55:17;;;;;;;10.77;7.97;;;;;;;-142.65;95.20;50170.78;5115357;28;20651;-68
2022/10/20 02:57:50;;;;;;;9.33;8.43;;;;;;;-142.65;95.01;50174.75;5114850;28;20184;-68
2022/10/20 03:00:16;;;;;;;9.20;8.43;;;;;;;-142.65;95.06;50176.75;5114606;28;20209;-68
2022/10/20 03:02:42;;;;;;;7.70;7.37;;;;;;;-142.65;94.90;50178.75;5114986;28;20196;-68
2022/10/20 03:05:09;;;;;;;9.53;8.93;;;;;;;-142.65;94.96;50170.78;5114931;28;20189;-68
2022/10/20 03:07:35;;;;;;;8.33;7.93;;;;;;;;;;5114626;28;20189;-68
2022/10/20 03:10:03;;;;;;;8.80;8.20;;;;;;;-142.65;95.14;50178.75;5114480;28;20192;-69
2022/10/20 03:12:29;;;;;;;7.33;7.10;;;;;;;-142.65;95.06;50178.75;5114530;28;20185;-68
2022/10/20 03:14:57;;;;;;;10.70;8.20;;;;;;;-142.65;95.03;50178.75;5114369;28;20200;-68
2022/10/20 03:17:23;;;;;;;8.40;7.80;;;;;;;-142.65;95.01;50176.75;5114742;28;20206;-68
2022/10/20 03:19:50;;;;;;;9.67;8.93;;;;;;;-142.65;94.98;50178.75;5114475;28;20195;-68
2022/10/20 03:22:16;;;;;;;7.90;7.53;;;;;;;-142.65;94.92;50176.75;5114272;28;20211;-68
2022/10/20 03:24:42;;;;;;;13.67;8.30;;;;;;;-142.65;94.80;50170.78;5114606;28;20243;-68
2022/10/20 03:27:09;;;;;;;8.83;8.23;;;;;;;-142.65;94.74;50178.75;5114590;28;20564;-68
2022/10/20 03:29:35;;;;;;;9.63;8.93;;;;;;;-142.65;94.79;50170.78;5114211;28;20661;-68
2022/10/20 03:32:01;;;;;;;10.10;9.30;;;;;;;-142.65;94.92;50170.78;5115183;28;20224;-68
2022/10/20 03:34:28;;;;;;;10.10;9.40;;;;;;;-142.65;95.00;50174.75;5114108;28;20193;-68
2022/10/20 03:36:54;;;;;;;8.63;8.23;;;;;;;-142.65;94.90;50176.75;5114151;28;20182;-68
2022/10/20 03:39:21;;;;;;;12.13;8.37;;;;;;;-142.65;94.93;50170.78;5114327;28;20190;-68
2022/10/20 03:41:47;;;;;;;8.57;7.97;;;;;;;-142.65;94.96;50172.78;5113848;28;20680;-68
2022/10/20 03:44:13;;;;;;;11.07;9.73;;;;;;;-142.65;94.82;50170.78;5114277;28;20199;-68
2022/10/20 03:46:40;;;;;;;8.50;8.03;;;;;;;-142.65;94.73;50170.78;5114267;28;20198;-68
2022/10/20 03:49:06;;;;;;;8.83;8.27;;;;;;;-142.65;94.83;50180.75;5114193;28;20185;-68
2022/10/20 03:51:32;;;;;;;9.37;8.60;;;;;;;-142.65;94.77;50164.81;5114105;28;20201;-68
2022/10/20 03:53:59;;;;;;;8.87;8.27;;;;;;;-142.65;94.90;50178.75;5114155;28;20540;-68
2022/10/20 03:56:25;;;;;;;9.43;8.73;;;;;;;-142.65;94.90;50176.75;5113723;28;20185;-68
2022/10/20 03:58:51;;;;;;;9.10;8.30;;;;;;;-142.65;95.03;50172.78;5114044;28;20189;-68
2022/10/20 04:01:21;;;;;;;8.50;7.63;;;;;;;-142.65;95.16;50162.81;5113612;28;20213;-68
2022/10/20 04:03:48;;;;;;;11.60;8.80;;;;;;;-142.65;95.05;50172.78;5114052;28;20176;-68
2022/10/20 04:06:15;;;;;;;10.50;8.83;;;;;;;-142.65;95.22;50178.75;5113696;28;20181;-68
2022/10/20 04:08:41;;;;;;;10.00;9.07;;;;;;;-142.65;95.11;50174.75;5113713;28;20213;-68
2022/10/20 04:11:08;;;;;;;9.67;8.27;;;;;;;-142.65;95.09;50174.75;5113564;28;20229;-69
2022/10/20 04:13:34;;;;;;;9.70;8.63;;;;;;;-142.65;95.10;50176.75;5113452;28;20197;-69
2022/10/20 04:16:00;;;;;;;8.77;7.83;;;;;;;-142.65;95.24;50172.78;5113643;28;20178;-69
2022/10/20 04:18:27;;;;;;;9.27;7.73;;;;;;;-142.65;94.96;50178.75;5113802;28;20291;-69
2022/10/20 04:20:53;;;;;;;8.90;8.40;;;;;;;-142.65;94.96;50172.78;5113426;28;20209;-69
2022/10/20 04:23:20;;;;;;;10.53;9.03;;;;;;;-142.65;94.69;50178.75;5113503;28;20185;-69
2022/10/20 04:25:47;;;;;;;8.97;8.13;;;;;;;-142.65;94.78;50180.75;5113777;28;20198;-68
2022/10/20 04:28:15;;;;;;;9.40;8.57;;;;;;;-142.65;94.87;50178.75;5113768;28;20196;-68
2022/10/20 04:30:42;;;;;;;9.70;8.90;;;;;;;-142.65;95.07;50176.75;5113419;28;20568;-68
2022/10/20 04:33:09;;;;;;;11.87;8.63;;;;;;;-142.65;95.07;50174.75;5113798;28;20206;-68
2022/10/20 04:35:36;;;;;;;9.70;8.70;;;;;;;-142.65;95.02;50178.75;5113467;28;20193;-68
2022/10/20 04:38:02;;;;;;;9.70;8.90;;;;;;;-142.65;94.95;50174.75;5113939;28;20189;-69
2022/10/20 04:40:29;;;;;;;9.57;8.83;;;;;;;-142.65;94.98;50180.75;5113202;28;20208;-68
2022/10/20 04:42:58;;;;;;;9.47;8.77;;;;;;;-142.65;95.09;50164.81;5113883;28;20535;-68
2022/10/20 04:45:25;;;;;;;12.03;9.83;;;;;;;-142.65;95.22;50178.75;5113358;28;20193;-68
2022/10/20 04:47:52;;;;;;;10.20;9.40;;;;;;;-142.65;95.32;50170.78;5113935;28;20188;-68
2022/10/20 04:50:19;;;;;;;8.90;8.43;;;;;;;-142.65;95.43;50174.75;5113479;28;20209;-68
2022/10/20 04:52:57;;;;;;;9.67;9.07;;;;;;;;;;5113545;28;20157;-68
2022/10/20 04:55:23;;;;;;;9.30;8.70;;;;;;;-142.65;95.28;50172.78;5113289;28;20184;-68
2022/10/20 04:57:49;;;;;;;10.53;9.83;;;;;;;-142.65;95.46;50170.78;5113517;28;20186;-68
2022/10/20 05:00:16;;;;;;;8.57;8.17;;;;;;;-142.65;95.46;50180.75;5113161;28;20218;-69
2022/10/20 05:02:42;;;;;;;9.70;9.30;;;;;;;-142.65;95.48;50180.75;5113729;28;20204;-68
2022/10/20 05:05:08;;;;;;;9.47;8.80;;;;;;;-142.65;95.36;50178.75;5113185;28;20194;-68
2022/10/20 05:07:35;;;;;;;9.57;9.07;;;;;;;-142.65;95.35;50174.75;5114196;28;20185;-68
2022/10/20 05:10:02;;;;;;;13.27;9.70;;;;;;;-142.65;95.52;50170.78;5116824;28;20190;-69
2022/10/20 05:12:29;;;;;;;9.73;8.93;;;;;;;-142.65;95.36;50170.78;5117491;28;20173;-68
2022/10/20 05:14:55;;;;;;;9.40;8.83;;;;;;;-142.65;95.25;50180.75;5116711;28;20192;-68
2022/10/20 05:17:21;;;;;;;9.17;8.60;;;;;;;-142.65;95.25;50172.78;5116681;28;20202;-68
2022/10/20 05:19:48;;;;;;;10.43;9.53;;;;;;;-142.65;95.06;50164.81;5116771;28;20560;-68
2022/10/20 05:22:14;;;;;;;10.57;9.50;;;;;;;-142.65;95.22;50172.78;5117297;28;20205;-68
2022/10/20 05:24:40;;;;;;;9.63;8.87;;;;;;;-142.65;95.12;50178.75;5117135;28;20652;-68
2022/10/20 05:27:07;;;;;;;9.67;8.73;;;;;;;-142.65;95.17;50182.72;5116810;28;20191;-68
2022/10/20 05:29:33;;;;;;;10.27;9.57;;;;;;;-142.65;95.25;50172.78;5116544;28;20206;-68
2022/10/20 05:31:59;;;;;;;10.60;9.63;;;;;;;-142.65;95.03;50178.75;5116399;28;20205;-68
2022/10/20 05:34:26;;;;;;;10.50;9.47;;;;;;;-142.65;95.04;50174.75;5116992;28;20204;-68
2022/10/20 05:36:53;;;;;;;10.53;9.83;;;;;;;-142.65;94.97;50180.75;5116345;28;20189;-68
2022/10/20 05:39:20;;;;;;;10.70;9.83;;;;;;;-142.65;95.04;50170.78;5116307;28;20186;-68
2022/10/20 05:41:46;;;;;;;10.93;9.83;;;;;;;-142.65;94.97;50178.75;5116242;28;20206;-68
2022/10/20 05:44:13;;;;;;;9.47;8.80;;;;;;;-142.65;94.75;50180.75;5116198;28;20226;-68
2022/10/20 05:46:41;;;;;;;10.60;9.80;;;;;;;-142.65;95.02;50170.78;5117321;28;20548;-68
2022/10/20 05:49:13;;;;;;;10.17;9.43;;;;;;;-142.65;94.98;50176.75;5116135;28;20197;-68
2022/10/20 05:51:39;;;;;;;10.77;9.87;;;;;;;-142.65;94.96;50176.75;5116106;28;20203;-69
2022/10/20 05:54:06;;;;;;;10.40;9.50;;;;;;;-142.65;94.86;50178.75;5116395;28;20173;-68
2022/10/20 05:56:33;;;;;;;10.70;9.63;;;;;;;-142.65;94.84;50178.75;5115987;28;20190;-68
2022/10/20 05:58:59;;;;;;;13.07;9.17;;;;;;;-142.65;94.61;50170.78;5116173;28;20202;-68
2022/10/20 06:01:38;;;;;;;10.60;9.80;;;;;;;-142.65;94.73;50168.78;5115792;28;20208;-68
2022/10/20 06:04:07;;;;;;;10.50;9.80;;;;;;;-142.65;94.93;50170.78;5116104;28;20177;-68
2022/10/20 06:06:34;;;;;;;12.83;10.00;;;;;;;-142.65;94.88;50172.78;5116300;28;20189;-68
2022/10/20 06:09:05;;;;;;;10.30;9.50;;;;;;;-142.65;94.90;50172.78;5116325;28;20274;-68
2022/10/20 06:11:32;;;;;;;10.33;9.63;;;;;;;-142.65;95.01;50178.75;5116116;28;20283;-69
2022/10/20 06:14:05;;;;;;;11.83;9.73;;;;;;;-142.65;94.90;50174.75;5115888;28;20220;-68
2022/10/20 06:16:31;;;;;;;10.73;9.83;;;;;;;-142.65;94.89;50174.75;5115641;28;20658;-68
2022/10/20 06:18:58;;;;;;;15.47;10.37;;;;;;;-142.65;94.96;50180.75;5114604;28;20208;-68
2022/10/20 06:21:28;;;;;;;12.83;9.73;;;;;;;-142.65;94.94;50174.75;5115367;28;20212;-68
2022/10/20 06:23:58;;;;;;;11.67;9.67;;;;;;;-142.65;94.88;50174.75;5115426;28;20188;-68
2022/10/20 06:26:28;;;;;;;11.17;10.27;;;;;;;-142.65;94.78;50178.75;5115410;28;20189;-68
2022/10/20 06:28:55;;;;;;;16.10;9.60;;;;;;;;;;5115367;28;20190;-68
2022/10/20 06:31:30;;;;;;;10.57;9.63;;;;;;;-142.65;94.63;50178.75;5115298;28;20258;-68
2022/10/20 06:33:57;;;;;;;11.33;10.20;;;;;;;-142.65;94.57;50174.75;5116026;28;20196;-68
2022/10/20 06:36:25;;;;;;;13.27;10.03;;;;;;;-142.65;94.75;50174.75;5115598;28;20192;-68
2022/10/20 06:38:57;;;;;;;12.10;9.77;;;;;;;-142.65;94.69;50170.78;5115135;28;20237;-68
2022/10/20 06:41:24;;;;;;;12.90;9.73;;;;;;;;;;5115226;28;20223;-68
2022/10/20 06:43:56;;;;;;;10.50;9.70;;;;;;;-142.65;94.66;50174.75;5115412;28;20179;-69
2022/10/20 06:46:23;;;;;;;11.37;10.33;;;;;;;-142.65;94.42;50168.78;5115297;28;20184;-68
2022/10/20 06:48:50;;;;;;;11.30;10.40;;;;;;;-142.65;94.53;50170.78;5114966;28;20679;-68
2022/10/20 06:51:21;;;;;;;11.00;9.90;;;;;;;-142.65;94.54;50180.75;5115183;28;20211;-69
2022/10/20 06:53:50;;;;;;;10.27;9.53;;;;;;;-142.65;94.55;50174.75;5115549;28;20176;-68
2022/10/20 06:56:19;;;;;;;10.23;9.47;;;;;;;-142.65;94.42;50168.78;5115411;28;20224;-68
2022/10/20 06:58:47;;;;;;;11.60;10.60;;;;;;;-142.65;94.52;50178.75;5115112;28;20195;-68
2022/10/20 07:01:19;;;;;;;10.77;9.90;;;;;;;-142.65;94.40;50168.78;5114742;28;20209;-69
2022/10/20 07:03:46;;;;;;;10.20;9.57;;;;;;;-142.65;94.29;50178.75;5114948;28;20180;-69
2022/10/20 07:06:16;;;;;;;11.30;9.93;;;;;;;-142.65;94.24;50174.75;5114955;28;20180;-69
2022/10/20 07:08:43;;;;;;;10.30;9.53;;;;;;;-142.65;94.26;50168.78;5114837;28;20189;-69
2022/10/20 07:11:15;;;;;;;10.70;9.93;;;;;;;-142.65;94.10;50180.75;5114407;28;20294;-69
2022/10/20 07:13:42;;;;;;;11.03;10.13;;;;;;;-142.65;94.13;50180.75;5114521;28;20190;-69
2022/10/20 07:16:12;;;;;;;12.00;10.73;;;;;;;-142.65;93.94;50170.78;5114454;28;20178;-69
2022/10/20 07:18:39;;;;;;;11.40;10.43;;;;;;;-142.65;93.94;50176.75;5114441;28;20181;-69
2022/10/20 07:21:10;;;;;;;12.03;10.83;;;;;;;-142.65;93.98;50182.72;5114207;28;20218;-69
2022/10/20 07:23:36;;;;;;;11.67;10.60;;;;;;;-142.65;93.79;50176.75;5114619;28;20172;-69
2022/10/20 07:26:06;;;;;;;12.77;11.40;;;;;;;-142.65;93.89;50174.75;5114604;28;20189;-69
2022/10/20 07:28:33;;;;;;;12.20;11.10;;;;;;;-142.65;93.69;50168.78;5114218;28;20197;-68
2022/10/20 07:31:04;;;;;;;11.60;10.50;;;;;;;-142.65;93.75;50178.75;5114003;28;20682;-69
2022/10/20 07:33:31;;;;;;;11.13;10.00;;;;;;;-142.65;93.55;50172.78;5114371;28;20170;-69
2022/10/20 07:35:57;;;;;;;13.90;10.43;;;;;;;-142.65;93.43;50174.75;5114397;28;20172;-69
2022/10/20 07:38:24;;;;;;;10.43;9.63;;;;;;;-142.65;93.54;50170.78;5114111;28;20191;-69
2022/10/20 07:40:50;;;;;;;19.90;11.67;;;;;;;-142.65;93.53;50178.75;5114339;28;20215;-69
2022/10/20 07:43:17;;;;;;;12.70;11.13;;;;;;;-142.65;93.48;50168.78;5114279;28;20208;-68
2022/10/20 07:45:44;;;;;;;13.70;11.03;;;;;;;-142.65;93.13;50174.75;5114009;28;20193;-68
2022/10/20 07:48:10;;;;;;;13.10;11.80;;;;;;;-142.65;93.11;50168.78;5113940;28;20234;-68
2022/10/20 07:50:37;;;;;;;14.87;10.63;;;;;;;-142.65;93.08;50180.75;5113871;28;20214;-69
2022/10/20 07:53:05;;;;;;;11.87;10.87;;;;;;;-142.65;93.02;50170.78;5114241;28;20173;-69
2022/10/20 07:55:33;;;;;;;13.07;11.03;;;;;;;-142.65;92.59;50170.78;5114161;28;20196;-69
2022/10/20 07:58:04;;;;;;;11.60;10.50;;;;;;;-142.65;92.67;50178.75;5095558;28;20189;-69
2022/10/20 08:00:31;;;;;;;13.83;11.67;;;;;;;-142.65;92.50;50168.78;5113658;28;20211;-69
2022/10/20 08:02:57;;;;;;;18.23;11.67;;;;;;;-142.65;92.48;50164.81;5114179;28;20258;-69
2022/10/20 08:05:23;;;;;;;13.70;11.23;;;;;;;-142.65;92.32;50164.81;5113766;28;20536;-69
2022/10/20 08:07:50;;;;;;;12.10;11.10;;;;;;;-142.65;92.06;50164.81;5113682;28;20188;-68
2022/10/20 08:10:16;;;;;;;20.73;11.47;;;;;;;-142.65;91.77;50170.78;5113545;28;20219;-69
2022/10/20 08:12:43;;;;;;;12.17;10.77;;;;;;;-142.65;91.53;50170.78;5113627;28;20180;-69
2022/10/20 08:15:09;;;;;;;11.40;10.40;;;;;;;;;;5113589;28;20651;-68
2022/10/20 08:17:43;;;;;;;11.90;11.00;;;;;;;-142.65;91.25;50174.75;5114247;28;20173;-68
2022/10/20 08:20:09;;;;;;;13.83;11.33;;;;;;;-142.65;91.44;50164.81;5113508;28;20185;-69
2022/10/20 08:22:36;;;;;;;13.93;10.80;;;;;;;;;;5113768;28;20205;-69
2022/10/20 08:25:03;;;;;;;18.60;9.90;;;;;;;-142.65;91.24;50164.81;5114088;28;20205;-69
2022/10/20 08:27:29;;;;;;;12.03;10.30;;;;;;;-142.65;91.18;50170.78;5113469;28;20185;-69
2022/10/20 08:29:56;;;;;;;14.63;10.43;;;;;;;-142.65;90.95;50174.75;5113416;28;20181;-69
2022/10/20 08:32:42;;;;;;;13.00;11.03;;;;;;;;;;5113767;28;20169;-69
2022/10/20 08:35:09;;;;;;;14.23;11.13;;;;;;;;;;5114066;28;20189;-69
2022/10/20 08:37:35;;;;;;;12.10;10.93;;;;;;;;;;5113429;28;20182;-69
2022/10/20 08:40:03;;;;;;;14.60;11.03;;;;;;;;;;5113949;28;20189;-69
2022/10/20 08:42:36;;;;;;;12.10;10.40;;;;;;;-142.65;89.88;50170.78;5114854;28;20219;-69
2022/10/20 08:45:02;;;;;;;11.47;9.97;;;;;;;-142.65;89.83;50174.75;5117499;28;20230;-69
2022/10/20 08:47:33;;;;;;;13.03;10.17;;;;;;;-142.65;89.78;50170.78;5117369;28;20555;-69
2022/10/20 08:50:02;;;;;;;11.97;10.80;;;;;;;;;;5117840;28;20603;-69
2022/10/20 08:52:28;;;;;;;11.90;11.00;;;;;;;;;;5117293;28;20682;-69
2022/10/20 08:54:56;;;;;;;13.10;10.57;;;;;;;-142.65;89.09;50170.78;5117212;28;20193;-69
2022/10/20 08:57:28;;;;;;;21.93;10.83;;;;;;;-142.65;89.20;50168.78;5117192;28;20555;-69
2022/10/20 09:00:06;;;;;;;11.23;10.60;;;;;;;-142.65;89.12;50168.78;5117027;28;20635;-69
2022/10/20 09:02:34;;;;;;;12.77;11.10;;;;;;;-142.65;88.60;50172.78;5117034;28;20193;-69
2022/10/20 09:05:01;;;;;;;13.73;10.67;;;;;;;;;;5117260;28;20193;-69
2022/10/20 09:07:30;;;;;;;19.13;11.00;;;;;;;;;;5116951;28;20191;-69
2022/10/20 09:10:15;;;;;;;11.83;10.97;;;;;;;-142.65;87.76;50172.78;5117155;28;20203;-70
2022/10/20 09:12:42;;;;;;;19.97;10.90;;;;;;;;;;5117163;28;20261;-67
2022/10/20 09:15:14;;;;;;;11.40;10.40;;;;;;;-142.65;86.76;50162.81;5116734;28;20189;-67
2022/10/20 09:17:44;;;;;;;14.03;10.70;;;;;;;-142.65;86.88;50164.81;5117091;28;20304;-66
2022/10/20 09:20:24;;;;;;;12.30;11.20;;;;;;;-142.65;86.26;50170.78;5116949;28;20184;-67
2022/10/20 09:22:51;;;;;;;10.43;9.73;;;;;;;-142.65;86.06;50164.81;5116918;28;20199;-67
2022/10/20 09:25:19;;;;;;;9.97;9.47;;;;;;;;;;5116930;28;20603;-67
2022/10/20 09:27:45;;;;;;;12.17;10.20;;;;;;;-142.65;85.79;50174.75;5116612;28;20201;-67
2022/10/20 09:30:13;;;;;;;11.63;10.70;;;;;;;;;;5116224;28;20177;-67
2022/10/20 09:32:40;;;;;;;10.53;9.73;;;;;;;-142.65;86.01;50170.78;5116209;28;20213;-67
2022/10/20 09:35:14;;;;;;;11.53;10.50;;;;;;;-142.65;85.70;50164.81;5116786;28;20194;-66
2022/10/20 09:37:42;;;;;;;12.23;9.93;;;;;;;-142.65;85.72;50164.81;5116639;28;20189;-66
2022/10/20 09:40:15;;;;;;;15.10;10.20;;;;;;;;;;5116506;28;20181;-67
2022/10/20 09:42:56;;;;;;;11.70;10.80;;;;;;;-142.65;86.22;50168.78;5116510;28;20197;-67
2022/10/20 09:45:27;;;;;;;11.90;9.63;;;;;;;;;;5116512;28;20165;-68
2022/10/20 09:47:57;;;;;;;16.83;11.47;;;;;;;;;;5116237;28;20177;-69
2022/10/20 09:50:34;;;;;;;10.50;9.27;;;;;;;-142.65;86.23;50162.81;5116362;28;20193;-69
2022/10/20 09:53:03;;;;;;;10.70;9.87;;;;;;;;;;5115779;28;20612;-67
2022/10/20 09:55:32;;;;;;;11.63;10.03;;;;;;;-142.65;86.45;50170.78;5116079;28;20663;-67
2022/10/20 09:58:02;;;;;;;10.23;9.17;;;;;;;-142.65;86.66;50170.78;5116264;28;20204;-67
2022/10/20 10:00:31;;;;;;;11.03;8.70;;;;;;;-142.65;86.58;50164.81;5116072;28;20236;-67
2022/10/20 10:03:08;;;;;;;11.77;10.23;;;;;;;-142.65;86.56;50164.81;5116431;28;20200;-67
2022/10/20 10:05:35;;;;;;;10.17;9.17;;;;;;;;;;5116088;28;20189;-67
2022/10/20 10:08:01;;;;;;;13.20;9.57;;;;;;;-142.65;86.32;50162.81;5116317;28;20177;-67
2022/10/20 10:10:30;;;;;;;10.10;9.23;;;;;;;-142.65;86.55;50162.81;5116173;28;20207;-67
2022/10/20 10:12:59;;;;;;;14.57;8.50;;;;;;;-142.65;86.45;50162.81;5115903;28;20177;-67
2022/10/20 10:15:33;;;;;;;9.17;8.70;;;;;;;-142.65;86.63;50160.81;5115592;28;20191;-67
2022/10/20 10:18:10;;;;;;;14.00;9.83;;;;;;;;;;5115609;28;20623;-67
2022/10/20 10:20:39;;;;;;;17.30;9.13;;;;;;;;;;5115772;28;20224;-67
2022/10/20 10:23:21;;;;;;;10.63;8.77;;;;;;;-142.65;85.95;50170.78;5115446;28;20215;-67
2022/10/20 10:25:48;;;;;;;9.37;8.53;;;;;;;;;;5097660;28;20173;-67
2022/10/20 10:28:23;;;;;;;8.93;8.33;;;;;;;;;;5115653;28;20188;-67
2022/10/20 10:31:03;;;;;;;9.43;8.47;;;;;;;;;;5115253;28;20211;-67
2022/10/20 10:33:31;;;;;;;14.70;8.93;;;;;;;-142.65;86.87;50164.81;5115838;28;20169;-67
2022/10/20 10:36:01;;;;;;;10.57;8.67;;;;;;;;;;5115173;28;20196;-67
2022/10/20 10:38:28;;;;;;;8.23;7.83;;;;;;;-142.65;86.39;50170.78;5115510;28;20191;-67
2022/10/20 10:41:26;;;;;;;8.30;8.00;;;;;;;-142.65;85.88;50162.81;5115971;28;20201;-67
2022/10/20 10:44:20;;;;;;;8.37;7.83;;;;;;;-142.65;85.38;50162.81;5115580;28;20198;-67
2022/10/20 10:46:58;;;;;;;7.80;7.17;;;;;;;;;;5115618;28;20178;-68
2022/10/20 10:49:43;;;;;;;8.73;7.43;;;;;;;-142.65;83.79;50164.81;5114953;28;20181;-68
2022/10/20 10:52:17;;;;;;;9.17;8.03;;;;;;;;;;5114812;28;20219;-69
2022/10/20 10:55:01;;;;;;;9.80;8.27;;;;;;;-142.65;80.06;50164.81;5114888;28;20184;-69
2022/10/20 10:57:34;;;;;;;8.13;7.57;;;;;;;;;;5114786;28;20165;-69
2022/10/20 11:00:10;;;;;;;8.53;7.70;;;;;;;-142.65;80.56;50164.81;5114948;28;20173;-69
2022/10/20 11:02:54;;;;;;;11.40;7.40;;;;;;;;;;5114632;28;20207;-68
2022/10/20 11:05:33;;;;;;;8.63;8.23;;;;;;;-142.65;80.92;50162.81;5114298;28;20188;-68
2022/10/20 11:08:10;;;;;;;8.10;7.53;;;;;;;-142.65;81.42;50168.78;5115192;28;20174;-68
2022/10/20 11:10:53;;;;;;;8.37;7.77;;;;;;;;;;5114798;28;20572;-69
2022/10/20 11:13:19;;;;;;;9.67;8.87;;;;;;;;;;5114730;28;20530;-69
2022/10/20 11:16:08;;;;;;;8.00;7.40;;;;;;;;;;5115066;28;20566;-69
2022/10/20 11:18:50;;;;;;;8.13;7.47;;;;;;;-142.65;82.24;50172.78;5115029;28;20174;-69
2022/10/20 11:21:50;;;;;;;8.27;7.80;;;;;;;-142.65;81.58;50174.75;5114417;28;20237;-69
2022/10/20 11:24:58;;;;;;;9.97;9.07;;;;;;;-142.65;82.21;50118.97;5114578;28;20197;-69
2022/10/20 11:27:28;;;;;;;8.97;8.13;;;;;;;-142.65;81.80;50170.78;5080643;28;20204;-69
2022/10/20 11:30:17;;;;;;;8.53;8.10;;;;;;;-142.65;81.60;50162.81;5114208;28;20192;-69
2022/10/20 11:32:49;;;;;;;15.67;8.63;;;;;;;-142.65;82.18;50162.81;5114518;28;20179;-69
2022/10/20 11:35:46;;;;;;;18.47;8.83;;;;;;;-142.65;82.22;50164.81;5114197;28;20193;-69
2022/10/20 11:38:45;;;;;;;9.67;8.73;;;;;;;-142.65;82.07;50164.81;5114182;28;20179;-69
2022/10/20 11:41:18;;;;;;;8.57;7.77;;;;;;;-142.65;81.76;50168.78;5114187;28;20219;-69
2022/10/20 11:43:49;;;;;;;8.53;8.00;;;;;;;;;;5114266;28;20189;-69
2022/10/20 11:46:19;;;;;;;11.73;8.73;;;;;;;;;;5113993;28;20177;-69
2022/10/20 11:48:53;;;;;;;9.90;9.13;;;;;;;;;;5114151;28;20538;-69
2022/10/20 11:51:28;;;;;;;11.80;8.27;;;;;;;-142.65;82.13;50164.81;5114010;28;20216;-69